createdAt,value
2023-02-06T00:00:17.153Z,33364.53
2023-02-06T00:02:19.915Z,35622.66
2023-02-06T00:04:22.578Z,34003.56
2023-02-06T00:06:25.428Z,41426.16
2023-02-06T00:08:29.165Z,39154.97
2023-02-06T00:10:32.015Z,43361.09
2023-02-06T00:12:34.702Z,42713.59
2023-02-06T00:14:37.539Z,43687.47
2023-02-06T00:16:41.494Z,42713.97
2023-02-06T00:18:44.194Z,44977.16
2023-02-06T00:20:47.050Z,45300.94
2023-02-06T00:22:49.646Z,44983.19
2023-02-06T00:24:52.474Z,41419.81
2023-02-06T00:26:55.060Z,44018.63
2023-02-06T00:28:57.750Z,40134.59
2023-02-06T00:31:00.644Z,39819.22
2023-02-06T00:33:04.944Z,39818.50
2023-02-06T00:35:07.960Z,39178.00
2023-02-06T00:37:11.157Z,37562.47
2023-02-06T00:39:13.853Z,36596.03
2023-02-06T00:41:16.537Z,36910.63
2023-02-06T00:43:19.185Z,38845.97
2023-02-06T00:45:21.830Z,40468.84
2023-02-06T00:47:24.478Z,41441.09
2023-02-06T00:49:28.476Z,37875.94
2023-02-06T00:51:31.166Z,40446.56
2023-02-06T00:53:33.849Z,44323.34
2023-02-06T00:55:36.727Z,47889.16
2023-02-06T00:57:39.501Z,47890.88
2023-02-06T00:59:43.262Z,47558.75
2023-02-06T01:01:45.879Z,48521.84
2023-02-06T01:03:48.560Z,52079.06
2023-02-06T01:05:52.849Z,53382.19
2023-02-06T01:07:55.469Z,55336.78
2023-02-06T01:09:58.194Z,54038.16
2023-02-06T01:12:00.789Z,53385.03
2023-02-06T01:14:03.555Z,52098.00
2023-02-06T01:16:10.824Z,51771.19
2023-02-06T01:18:13.604Z,50494.69
2023-02-06T01:20:17.322Z,47239.81
2023-02-06T01:22:21.266Z,47894.28
2023-02-06T01:24:23.962Z,46589.78
2023-02-06T01:26:27.906Z,46263.41
2023-02-06T01:28:30.514Z,48208.97
2023-02-06T01:30:33.427Z,49177.91
2023-02-06T01:32:38.537Z,52736.84
2023-02-06T01:34:41.134Z,54038.16
2023-02-06T01:36:43.768Z,54030.03
2023-02-06T01:38:48.559Z,54026.69
2023-02-06T01:40:51.237Z,56296.09
2023-02-06T01:42:53.946Z,57282.03
2023-02-06T01:45:28.085Z,56314.00
2023-02-06T01:47:30.807Z,56647.00
2023-02-06T01:49:37.554Z,52091.06
2023-02-06T01:51:41.695Z,51111.88
2023-02-06T01:53:49.298Z,53058.09
2023-02-06T01:55:53.840Z,52405.81
2023-02-06T01:57:56.751Z,54355.19
2023-02-06T02:00:03.643Z,53715.88
2023-02-06T02:02:06.531Z,50784.84
2023-02-06T02:04:14.186Z,53386.00
2023-02-06T02:06:20.166Z,54373.47
2023-02-06T02:08:30.158Z,53401.13
2023-02-06T02:10:34.730Z,47555.75
2023-02-06T02:12:37.492Z,52406.75
2023-02-06T02:14:42.779Z,55650.34
2023-02-06T02:16:55.894Z,56282.69
2023-02-06T02:19:15.308Z,58545.38
2023-02-06T02:22:09.818Z,62461.28
2023-02-06T02:24:21.200Z,63105.72
2023-02-06T02:26:56.563Z,64405.44
2023-02-06T02:29:42.490Z,63753.56
2023-02-06T02:32:11.088Z,63399.00
2023-02-06T02:34:48.453Z,66335.88
2023-02-06T02:36:53.834Z,66671.59
2023-02-06T02:39:04.607Z,67638.78
2023-02-06T02:41:13.785Z,67308.72
2023-02-06T02:43:26.033Z,66972.31
2023-02-06T02:45:34.104Z,69585.44
2023-02-06T02:47:47.032Z,68929.63
2023-02-06T02:49:51.265Z,69256.88
2023-02-06T02:51:54.717Z,70898.91
2023-02-06T02:53:58.048Z,67306.38
2023-02-06T02:56:00.901Z,68944.09
2023-02-06T02:58:08.519Z,67635.81
2023-02-06T03:00:12.428Z,68627.63
2023-02-06T03:02:19.941Z,66014.13
2023-02-06T03:04:28.072Z,66334.69
2023-02-06T03:06:54.001Z,65378.09
2023-02-06T03:09:01.819Z,65050.59
2023-02-06T03:11:13.183Z,63418.50
2023-02-06T03:13:22.682Z,62110.09
2023-02-06T03:15:30.860Z,63096.84
2023-02-06T03:17:37.310Z,62770.25
2023-02-06T03:19:44.418Z,61142.81
2023-02-06T03:21:50.756Z,61794.53
2023-02-06T03:23:57.124Z,59841.47
2023-02-06T03:26:03.269Z,59834.09
2023-02-06T03:28:11.800Z,61787.47
2023-02-06T03:30:18.542Z,60475.31
2023-02-06T03:32:25.023Z,62433.28
2023-02-06T03:34:35.095Z,61770.13
2023-02-06T03:36:37.967Z,62754.84
2023-02-06T03:38:42.026Z,62418.47
2023-02-06T03:40:48.234Z,64044.34
2023-02-06T03:42:56.225Z,64046.03
2023-02-06T03:45:02.706Z,66000.81
2023-02-06T03:47:08.970Z,66008.94
2023-02-06T03:49:15.517Z,66337.00
2023-02-06T03:51:22.436Z,64391.88
2023-02-06T03:53:27.415Z,62102.47
2023-02-06T03:55:31.998Z,63078.03
2023-02-06T03:57:37.015Z,62104.09
2023-02-06T03:59:39.809Z,60470.50
2023-02-06T04:01:45.694Z,62099.19
2023-02-06T04:03:48.680Z,62754.84
2023-02-06T04:05:51.346Z,61447.59
2023-02-06T04:07:56.426Z,61788.03
2023-02-06T04:09:59.125Z,59830.91
2023-02-06T04:12:03.167Z,58860.00
2023-02-06T04:14:05.881Z,59839.38
2023-02-06T04:16:08.574Z,58206.50
2023-02-06T04:18:11.272Z,59187.09
2023-02-06T04:20:14.345Z,57890.84
2023-02-06T04:22:17.716Z,57902.56
2023-02-06T04:24:20.369Z,54978.41
2023-02-06T04:26:23.107Z,56596.00
2023-02-06T04:28:27.341Z,56268.75
2023-02-06T04:30:30.578Z,55626.75
2023-02-06T04:32:33.475Z,54335.47
2023-02-06T04:34:37.510Z,52720.94
2023-02-06T04:36:40.190Z,47538.78
2023-02-06T04:38:42.887Z,47853.72
2023-02-06T04:40:45.540Z,49158.66
2023-02-06T04:42:48.163Z,49498.59
2023-02-06T04:44:52.272Z,44969.09
2023-02-06T04:46:55.154Z,42048.84
2023-02-06T04:48:57.776Z,38818.88
2023-02-06T04:51:00.478Z,38489.66
2023-02-06T04:53:03.126Z,39461.31
2023-02-06T04:55:06.073Z,41079.41
2023-02-06T04:57:08.707Z,40758.78
2023-02-06T04:59:11.462Z,37859.09
2023-02-06T05:01:16.822Z,38173.38
2023-02-06T05:03:19.820Z,37844.31
2023-02-06T05:05:22.479Z,39466.66
2023-02-06T05:07:25.138Z,37207.25
2023-02-06T05:09:28.222Z,36875.06
2023-02-06T05:11:30.891Z,39134.06
2023-02-06T05:13:33.941Z,39138.31
2023-02-06T05:15:37.535Z,34947.28
2023-02-06T05:17:41.720Z,32372.16
2023-02-06T05:19:44.665Z,32367.66
2023-02-06T05:21:47.292Z,33650.38
2023-02-06T05:23:49.976Z,35262.75
2023-02-06T05:25:52.641Z,36558.38
2023-02-06T05:27:55.336Z,36234.38
2023-02-06T05:29:58.049Z,36561.72
2023-02-06T05:32:00.728Z,33337.25
2023-02-06T05:34:04.827Z,33983.63
2023-02-06T05:36:08.955Z,31732.66
2023-02-06T05:38:11.902Z,28519.06
2023-02-06T05:40:14.554Z,26267.19
2023-02-06T05:42:17.220Z,25946.50
2023-02-06T05:44:20.367Z,24984.78
2023-02-06T05:46:22.992Z,24025.25
2023-02-06T05:48:27.138Z,16323.91
2023-02-06T05:50:31.073Z,12162.72
2023-02-06T05:52:33.699Z,4489.59
2023-02-06T05:54:36.297Z,-1894.75
2023-02-06T05:56:39.250Z,-4764.00
2023-02-06T05:58:42.150Z,-6676.41
2023-02-06T06:00:45.114Z,-15266.38
2023-02-06T06:02:47.953Z,-20320.44
2023-02-06T06:04:50.587Z,-23196.97
2023-02-06T06:06:54.710Z,-23195.38
2023-02-06T06:08:57.674Z,-23194.09
2023-02-06T06:11:02.087Z,-23197.28
2023-02-06T06:13:05.240Z,-23196.03
2023-02-06T06:15:09.054Z,-21466.41
2023-02-06T06:17:11.738Z,-23195.53
2023-02-06T06:19:14.410Z,-23196.81
2023-02-06T06:21:17.131Z,-23196.50
2023-02-06T06:23:21.256Z,-23195.06
2023-02-06T06:25:23.932Z,-23196.81
2023-02-06T06:27:26.627Z,-23194.41
2023-02-06T06:29:29.441Z,-23195.38
2023-02-06T06:31:32.245Z,-22859.72
2023-02-06T06:33:35.560Z,-23193.78
2023-02-06T06:35:38.489Z,-21475.88
2023-02-06T06:37:41.321Z,-23194.09
2023-02-06T06:39:45.350Z,-23194.09
2023-02-06T06:41:47.973Z,-23189.94
2023-02-06T06:43:51.609Z,-23192.19
2023-02-06T06:45:54.431Z,-23190.59
2023-02-06T06:47:57.358Z,-23190.09
2023-02-06T06:50:00.046Z,-23191.88
2023-02-06T06:52:02.764Z,-23192.97
2023-02-06T06:54:05.854Z,-23188.84
2023-02-06T06:56:14.282Z,-23190.91
2023-02-06T06:58:17.055Z,-23191.06
2023-02-06T07:00:20.203Z,-23184.69
2023-02-06T07:02:22.851Z,-23189.94
2023-02-06T07:04:29.492Z,-23190.28
2023-02-06T07:06:32.299Z,-23191.88
2023-02-06T07:08:35.989Z,-23189.31
2023-02-06T07:10:38.583Z,-23185.97
2023-02-06T07:12:42.650Z,-23186.59
2023-02-06T07:14:45.366Z,-23190.28
2023-02-06T07:16:48.218Z,-23191.38
2023-02-06T07:18:50.799Z,-23188.34
2023-02-06T07:20:53.455Z,-23195.38
2023-02-06T07:22:56.305Z,-23193.47
2023-02-06T07:24:58.932Z,-23188.66
2023-02-06T07:27:01.543Z,-23184.53
2023-02-06T07:29:05.773Z,-23187.72
2023-02-06T07:31:09.943Z,-23191.88
2023-02-06T07:33:12.643Z,-23190.91
2023-02-06T07:35:15.845Z,-23189.63
2023-02-06T07:37:18.542Z,-23190.28
2023-02-06T07:39:21.410Z,-23186.91
2023-02-06T07:41:24.051Z,-23189.16
2023-02-06T07:43:26.696Z,-23181.00
2023-02-06T07:45:30.801Z,-23185.47
2023-02-06T07:47:33.473Z,-23190.28
2023-02-06T07:49:36.144Z,-23192.03
2023-02-06T07:51:38.818Z,-23197.63
2023-02-06T07:53:41.598Z,-23193.78
2023-02-06T07:55:44.366Z,-23194.09
2023-02-06T07:57:47.086Z,-23192.50
2023-02-06T07:59:49.710Z,-23190.28
2023-02-06T08:01:53.930Z,-23196.81
2023-02-06T08:03:56.675Z,-23198.56
2023-02-06T08:05:59.318Z,-23197.28
2023-02-06T08:08:01.952Z,-23196.50
2023-02-06T08:10:05.247Z,-23199.53
2023-02-06T08:12:09.884Z,-23198.41
2023-02-06T08:14:13.707Z,-23196.34
2023-02-06T08:16:18.241Z,-23200.00
2023-02-06T08:18:22.282Z,-23190.91
2023-02-06T08:20:24.994Z,-23189.63
2023-02-06T08:22:29.689Z,-23192.66
2023-02-06T08:24:32.586Z,-23188.66
2023-02-06T08:26:35.294Z,-23190.59
2023-02-06T08:28:42.088Z,-23191.88
2023-02-06T08:30:45.068Z,-23193.16
2023-02-06T08:32:47.796Z,-23191.38
2023-02-06T08:34:51.825Z,-23196.03
2023-02-06T08:36:54.628Z,-23194.75
2023-02-06T08:38:57.351Z,-23194.09
2023-02-06T08:41:00.145Z,-23190.91
2023-02-06T08:43:02.864Z,-23188.34
2023-02-06T08:45:06.473Z,-23189.63
2023-02-06T08:47:10.668Z,-23199.38
2023-02-06T08:49:15.418Z,-23197.63
2023-02-06T08:51:20.951Z,-23192.81
2023-02-06T08:53:23.596Z,-23196.19
2023-02-06T08:55:26.690Z,-23194.09
2023-02-06T08:57:29.513Z,-23198.09
2023-02-06T08:59:32.419Z,-23198.56
2023-02-06T09:01:36.917Z,-23197.28
2023-02-06T09:03:39.725Z,-23189.00
2023-02-06T09:05:42.505Z,-23196.34
2023-02-06T09:07:46.677Z,-23190.91
2023-02-06T09:09:49.355Z,-23191.22
2023-02-06T09:11:53.296Z,-23197.28
2023-02-06T09:13:57.377Z,-23193.78
2023-02-06T09:16:00.151Z,-23202.72
2023-02-06T09:18:02.822Z,-23194.41
2023-02-06T09:20:05.832Z,-23194.41
2023-02-06T09:22:08.569Z,-23196.66
2023-02-06T09:24:12.809Z,-23207.84
2023-02-06T09:26:17.440Z,-23207.84
2023-02-06T09:28:20.209Z,-23199.84
2023-02-06T09:30:23.387Z,-23205.28
2023-02-06T09:32:26.273Z,-23198.88
2023-02-06T09:34:29.866Z,-23196.03
2023-02-06T09:36:34.495Z,-23198.88
2023-02-06T09:38:39.805Z,-23203.69
2023-02-06T09:40:43.858Z,-23200.16
2023-02-06T09:42:47.104Z,-23197.63
2023-02-06T09:44:57.349Z,-23197.94
2023-02-06T09:47:04.957Z,-23196.66
2023-02-06T09:49:14.569Z,-23194.91
2023-02-06T09:51:23.755Z,-23204.63
2023-02-06T09:53:35.503Z,-23205.91
2023-02-06T09:55:42.737Z,-23204.00
2023-02-06T09:57:52.094Z,-23194.09
2023-02-06T10:00:00.985Z,-23195.38
2023-02-06T10:02:23.315Z,-23191.22
2023-02-06T10:04:41.227Z,-23195.69
2023-02-06T10:06:53.854Z,-23201.59
2023-02-06T10:09:01.618Z,-23201.13
2023-02-06T10:11:10.643Z,-23199.53
2023-02-06T10:13:20.895Z,-23206.25
2023-02-06T10:15:34.632Z,-23203.38
2023-02-06T10:17:46.663Z,-23202.56
2023-02-06T10:19:54.092Z,-23206.88
2023-02-06T10:22:03.519Z,-23212.94
2023-02-06T10:24:11.485Z,-23215.50
2023-02-06T10:26:18.168Z,-23221.25
2023-02-06T10:28:28.272Z,-23211.34
2023-02-06T10:30:54.550Z,-23216.13
2023-02-06T10:33:03.214Z,-23221.56
2023-02-06T10:35:23.442Z,-23215.81
2023-02-06T10:37:49.469Z,-23212.00
2023-02-06T10:40:04.094Z,-23206.41
2023-02-06T10:42:16.245Z,-23212.63
2023-02-06T10:44:27.055Z,-23215.19
2023-02-06T10:46:42.866Z,-23205.75
2023-02-06T10:48:54.432Z,-23212.78
2023-02-06T10:51:04.684Z,-23207.50
2023-02-06T10:53:15.748Z,-23209.75
2023-02-06T10:55:23.446Z,-23208.47
2023-02-06T10:57:29.296Z,-23206.25
2023-02-06T10:59:35.762Z,-23208.94
2023-02-06T11:01:41.069Z,-23205.91
2023-02-06T11:03:47.873Z,-23206.56
2023-02-06T11:05:52.395Z,-23208.78
2023-02-06T11:07:57.460Z,-23207.84
2023-02-06T11:10:00.427Z,-23207.19
2023-02-06T11:12:05.099Z,-23205.28
2023-02-06T11:14:15.251Z,-23208.00
2023-02-06T11:16:25.922Z,-23213.25
2023-02-06T11:18:32.891Z,-23212.63
2023-02-06T11:20:39.382Z,-23215.50
2023-02-06T11:22:52.266Z,-23212.47
2023-02-06T11:25:06.188Z,-23217.25
2023-02-06T11:27:18.198Z,-23214.22
2023-02-06T11:29:22.944Z,-23213.09
2023-02-06T11:31:44.405Z,-23215.50
2023-02-06T11:33:51.621Z,-23215.50
2023-02-06T11:35:59.059Z,-23224.28
2023-02-06T11:38:16.113Z,-23210.38
2023-02-06T11:40:25.264Z,-23219.97
2023-02-06T11:42:28.423Z,-23212.47
2023-02-06T11:44:39.034Z,-23215.19
2023-02-06T11:46:43.252Z,-23218.53
2023-02-06T11:49:02.363Z,-23223.00
2023-02-06T11:51:07.150Z,-23232.91
2023-02-06T11:53:12.967Z,-23225.72
2023-02-06T11:55:23.382Z,-23226.34
2023-02-06T11:57:26.925Z,-23214.38
2023-02-06T11:59:30.683Z,-23212.63
2023-02-06T12:01:42.545Z,-23223.47
2023-02-06T12:03:55.267Z,-23227.31
2023-02-06T12:06:03.258Z,-23222.34
2023-02-06T12:08:11.498Z,-23223.31
2023-02-06T12:10:15.632Z,-23214.22
2023-02-06T12:12:24.544Z,-23218.38
2023-02-06T12:14:35.378Z,-23219.97
2023-02-06T12:16:42.587Z,-23217.72
2023-02-06T12:18:50.488Z,-23215.19
2023-02-06T12:20:56.167Z,-23215.19
2023-02-06T12:23:07.182Z,-23210.06
2023-02-06T12:25:25.731Z,-23224.44
2023-02-06T12:27:33.006Z,-23228.59
2023-02-06T12:29:38.910Z,-23212.00
2023-02-06T12:31:47.699Z,-23225.06
2023-02-06T12:33:55.209Z,-23218.53
2023-02-06T12:36:03.263Z,-23224.44
2023-02-06T12:38:14.160Z,-23221.41
2023-02-06T12:40:35.486Z,-23216.28
2023-02-06T12:42:42.852Z,-23215.34
2023-02-06T12:44:49.219Z,-23215.19
2023-02-06T12:46:58.223Z,-23216.13
2023-02-06T12:49:08.406Z,-23220.94
2023-02-06T12:51:20.548Z,-23211.81
2023-02-06T12:53:29.446Z,-23212.94
2023-02-06T12:55:35.565Z,-23207.19
2023-02-06T12:57:39.380Z,-23210.22
2023-02-06T13:00:07.576Z,-23207.34
2023-02-06T13:02:24.133Z,-23209.44
2023-02-06T13:04:30.813Z,-23208.94
2023-02-06T13:06:43.541Z,-23215.00
2023-02-06T13:08:51.349Z,-23212.31
2023-02-06T13:11:04.959Z,-23211.66
2023-02-06T13:13:07.974Z,-23215.34
2023-02-06T13:15:23.973Z,-23213.56
2023-02-06T13:17:28.807Z,-23204.31
2023-02-06T13:19:53.668Z,-23207.19
2023-02-06T13:22:11.063Z,-23212.94
2023-02-06T13:24:17.725Z,-23215.97
2023-02-06T13:26:40.401Z,-23212.31
2023-02-06T13:28:57.009Z,-23218.38
2023-02-06T13:31:02.519Z,-23206.72
2023-02-06T13:33:14.952Z,-23215.81
2023-02-06T13:35:25.270Z,-23221.25
2023-02-06T13:37:34.087Z,-23217.41
2023-02-06T13:39:36.854Z,-23210.69
2023-02-06T13:41:42.236Z,-23215.97
2023-02-06T13:43:49.406Z,-23218.06
2023-02-06T13:45:57.469Z,-23214.22
2023-02-06T13:48:39.366Z,-23215.81
2023-02-06T13:51:01.070Z,-23213.41
2023-02-06T13:53:18.900Z,-23221.25
2023-02-06T13:55:36.470Z,-23214.84
2023-02-06T13:58:11.323Z,-23209.13
2023-02-06T14:00:18.520Z,-23218.53
2023-02-06T14:02:28.484Z,-23222.03
2023-02-06T14:04:33.369Z,-23226.19
2023-02-06T14:07:01.948Z,-23227.00
2023-02-06T14:09:18.615Z,-23223.78
2023-02-06T14:11:35.991Z,-23228.91
2023-02-06T14:13:52.831Z,-23221.88
2023-02-06T14:16:07.673Z,-23224.44
2023-02-06T14:18:38.209Z,-23217.09
2023-02-06T14:20:49.904Z,-23220.94
2023-02-06T14:23:08.199Z,-23221.72
2023-02-06T14:25:20.829Z,-23223.94
2023-02-06T14:27:38.502Z,-23225.38
2023-02-06T14:29:47.969Z,-23226.03
2023-02-06T14:32:11.279Z,-23235.59
2023-02-06T14:34:27.574Z,-23223.94
2023-02-06T14:36:48.924Z,-23220.59
2023-02-06T14:39:10.645Z,-23223.16
2023-02-06T14:41:13.566Z,-23222.50
2023-02-06T14:43:20.564Z,-23222.34
2023-02-06T14:45:29.347Z,-23223.47
2023-02-06T14:47:42.285Z,-23223.16
2023-02-06T14:49:45.904Z,-23227.31
2023-02-06T14:51:51.122Z,-23218.38
2023-02-06T14:53:58.219Z,-23225.06
2023-02-06T14:56:09.921Z,-23220.28
2023-02-06T14:58:21.886Z,-23218.06
2023-02-06T15:00:26.846Z,-23223.47
2023-02-06T15:02:32.762Z,-23223.78
2023-02-06T15:04:45.588Z,-23232.25
2023-02-06T15:06:52.738Z,-23224.13
2023-02-06T15:08:56.769Z,-23230.03
2023-02-06T15:11:00.720Z,-23234.00
2023-02-06T15:13:04.001Z,-23229.53
2023-02-06T15:15:21.284Z,-23222.03
2023-02-06T15:17:26.641Z,-23225.38
2023-02-06T15:19:31.279Z,-23221.88
2023-02-06T15:21:37.209Z,-23222.34
2023-02-06T15:23:55.577Z,-23216.13
2023-02-06T15:26:06.487Z,-23213.91
2023-02-06T15:28:14.329Z,-23217.41
2023-02-06T15:30:21.111Z,-23215.19
2023-02-06T15:32:30.962Z,-23213.41
2023-02-06T15:34:37.396Z,-23214.84
2023-02-06T15:36:40.499Z,-23211.81
2023-02-06T15:38:43.519Z,-23212.94
2023-02-06T15:40:48.119Z,-23214.84
2023-02-06T15:42:52.407Z,-23220.75
2023-02-06T15:44:55.442Z,-23216.28
2023-02-06T15:46:59.119Z,-23216.13
2023-02-06T15:49:01.842Z,-23215.00
2023-02-06T15:51:19.306Z,-23218.69
2023-02-06T15:53:30.697Z,-23215.34
2023-02-06T15:55:37.648Z,-23213.25
2023-02-06T15:57:44.581Z,-23212.63
2023-02-06T15:59:49.946Z,-23211.19
2023-02-06T16:01:55.086Z,-23212.94
2023-02-06T16:04:06.297Z,-23211.66
2023-02-06T16:06:15.272Z,-23213.41
2023-02-06T16:08:21.842Z,-23216.28
2023-02-06T16:10:26.997Z,-23214.22
2023-02-06T16:12:35.220Z,-23216.28
2023-02-06T16:14:40.529Z,-23213.91
2023-02-06T16:16:56.870Z,-23210.22
2023-02-06T16:19:00.051Z,-23213.25
2023-02-06T16:21:26.848Z,-23213.56
2023-02-06T16:23:31.244Z,-23215.19
2023-02-06T16:25:34.063Z,-23218.69
2023-02-06T16:27:36.834Z,-23216.44
2023-02-06T16:29:39.570Z,-23213.56
2023-02-06T16:31:45.826Z,-23216.28
2023-02-06T16:33:50.957Z,-23216.44
2023-02-06T16:35:55.759Z,-23213.25
2023-02-06T16:37:58.510Z,-23214.22
2023-02-06T16:40:02.519Z,-23215.50
2023-02-06T16:42:05.516Z,-23213.56
2023-02-06T16:44:17.127Z,-23218.06
2023-02-06T16:46:19.877Z,-23212.00
2023-02-06T16:48:24.205Z,-23211.34
2023-02-06T16:50:26.857Z,-23212.63
2023-02-06T16:52:32.505Z,-23212.31
2023-02-06T16:54:35.591Z,-23210.88
2023-02-06T16:56:39.961Z,-23212.63
2023-02-06T16:58:43.099Z,-23211.66
2023-02-06T17:00:46.655Z,-23211.81
2023-02-06T17:02:51.964Z,-23210.69
2023-02-06T17:04:56.585Z,-23212.00
2023-02-06T17:06:59.335Z,-23211.19
2023-02-06T17:09:06.676Z,-23211.03
2023-02-06T17:11:10.982Z,-23212.00
2023-02-06T17:13:16.084Z,-23211.34
2023-02-06T17:15:20.366Z,-23211.50
2023-02-06T17:17:24.162Z,-23214.69
2023-02-06T17:19:26.919Z,-23214.22
2023-02-06T17:21:33.123Z,-23212.63
2023-02-06T17:23:35.881Z,-23214.53
2023-02-06T17:25:39.537Z,-23213.25
2023-02-06T17:27:45.043Z,-23212.13
2023-02-06T17:29:48.203Z,-23217.09
2023-02-06T17:31:50.934Z,-23216.28
2023-02-06T17:33:53.709Z,-23216.63
2023-02-06T17:35:56.521Z,-23211.03
2023-02-06T17:38:00.631Z,-23211.34
2023-02-06T17:40:03.461Z,-23211.34
2023-02-06T17:42:06.350Z,-23212.31
2023-02-06T17:44:09.028Z,-23211.03
2023-02-06T17:46:13.108Z,-23211.66
2023-02-06T17:48:15.838Z,-23210.06
2023-02-06T17:50:20.491Z,-23212.31
2023-02-06T17:52:23.188Z,-23208.63
2023-02-06T17:54:28.454Z,-23209.44
2023-02-06T17:56:31.271Z,-23209.91
2023-02-06T17:58:34.062Z,-23212.00
2023-02-06T18:00:36.967Z,-23210.38
2023-02-06T18:02:39.952Z,-23208.94
2023-02-06T18:04:42.818Z,-23207.84
2023-02-06T18:06:45.658Z,-23209.75
2023-02-06T18:08:49.005Z,-23213.25
2023-02-06T18:10:53.120Z,-23211.34
2023-02-06T18:12:56.518Z,-23213.09
2023-02-06T18:14:59.471Z,-23208.31
2023-02-06T18:17:03.422Z,-23210.38
2023-02-06T18:19:06.140Z,-23212.31
2023-02-06T18:21:08.775Z,-23210.88
2023-02-06T18:23:11.536Z,-23208.16
2023-02-06T18:25:15.569Z,-23205.91
2023-02-06T18:27:21.247Z,-23212.31
2023-02-06T18:29:24.063Z,-23207.50
2023-02-06T18:31:29.061Z,-23206.56
2023-02-06T18:33:33.752Z,-23212.63
2023-02-06T18:35:38.660Z,-23206.56
2023-02-06T18:37:41.573Z,-23207.19
2023-02-06T18:39:44.421Z,-23210.56
2023-02-06T18:42:19.302Z,-23207.84
2023-02-06T18:44:24.519Z,-23207.50
2023-02-06T18:46:27.325Z,-23207.19
2023-02-06T18:48:30.034Z,-23211.19
2023-02-06T18:50:33.334Z,-23204.47
2023-02-06T18:52:36.036Z,-23207.19
2023-02-06T18:54:39.899Z,-23207.34
2023-02-06T18:56:42.554Z,-23203.38
2023-02-06T18:58:45.370Z,-23210.69
2023-02-06T19:00:49.491Z,-23205.59
2023-02-06T19:02:52.200Z,-23205.91
2023-02-06T19:04:55.143Z,-23202.72
2023-02-06T19:06:57.951Z,-23199.84
2023-02-06T19:09:00.948Z,-23200.81
2023-02-06T19:11:03.619Z,-23202.09
2023-02-06T19:13:06.713Z,-23195.06
2023-02-06T19:15:11.253Z,-23190.28
2023-02-06T19:17:15.299Z,-23192.19
2023-02-06T19:19:18.434Z,-23194.91
2023-02-06T19:21:22.836Z,-23190.28
2023-02-06T19:23:25.535Z,-23189.00
2023-02-06T19:25:28.227Z,-23189.94
2023-02-06T19:27:30.888Z,-23186.59
2023-02-06T19:29:36.070Z,-23190.59
2023-02-06T19:31:40.571Z,-23191.88
2023-02-06T19:33:44.722Z,-23187.72
2023-02-06T19:35:47.484Z,-23187.72
2023-02-06T19:37:51.392Z,-23189.31
2023-02-06T19:39:54.061Z,-23188.66
2023-02-06T19:41:56.870Z,-23190.59
2023-02-06T19:44:02.725Z,-23187.06
2023-02-06T19:46:06.345Z,-23191.53
2023-02-06T19:48:12.063Z,-23189.94
2023-02-06T19:50:16.364Z,-23191.53
2023-02-06T19:52:19.729Z,-23193.78
2023-02-06T19:54:22.401Z,-23191.06
2023-02-06T19:56:26.657Z,-23190.91
2023-02-06T19:58:31.359Z,-23193.16
2023-02-06T20:00:34.074Z,-23195.84
2023-02-06T20:02:37.275Z,-23191.72
2023-02-06T20:04:39.942Z,-23192.03
2023-02-06T20:06:44.906Z,-23195.69
2023-02-06T20:08:47.967Z,-23197.28
2023-02-06T20:10:50.748Z,-23195.06
2023-02-06T20:12:54.883Z,-23191.06
2023-02-06T20:14:57.708Z,-23189.94
2023-02-06T20:17:00.630Z,-23190.09
2023-02-06T20:19:07.755Z,-23193.63
2023-02-06T20:21:21.696Z,-23185.16
2023-02-06T20:23:26.583Z,-23187.22
2023-02-06T20:25:30.091Z,-23186.13
2023-02-06T20:27:32.882Z,-23188.84
2023-02-06T20:29:37.803Z,-23190.59
2023-02-06T20:31:40.566Z,-23184.03
2023-02-06T20:33:43.483Z,-23182.28
2023-02-06T20:35:46.188Z,-23184.19
2023-02-06T20:37:48.942Z,-23185.47
2023-02-06T20:39:53.094Z,-23181.00
2023-02-06T20:41:55.924Z,-23181.97
2023-02-06T20:43:59.491Z,-23181.31
2023-02-06T20:46:05.769Z,-23178.44
2023-02-06T20:48:08.435Z,-23179.72
2023-02-06T20:50:11.246Z,-23180.69
2023-02-06T20:52:13.881Z,-23186.75
2023-02-06T20:54:17.175Z,-23181.00
2023-02-06T20:56:22.825Z,-23178.75
2023-02-06T20:58:26.248Z,-23182.44
2023-02-06T21:00:29.287Z,-23182.59
2023-02-06T21:02:32.069Z,-23179.88
2023-02-06T21:04:34.799Z,-23183.88
2023-02-06T21:06:38.941Z,-23182.75
2023-02-06T21:08:42.060Z,-23184.53
2023-02-06T21:10:44.719Z,-23182.91
2023-02-06T21:12:48.785Z,-23185.47
2023-02-06T21:14:51.420Z,-23186.13
2023-02-06T21:16:54.063Z,-23182.91
2023-02-06T21:18:57.588Z,-23185.31
2023-02-06T21:21:09.285Z,-23182.59
2023-02-06T21:23:12.088Z,-23186.13
2023-02-06T21:25:14.779Z,-23184.69
2023-02-06T21:27:17.559Z,-23183.25
2023-02-06T21:29:22.940Z,-23183.56
2023-02-06T21:31:33.295Z,-23185.16
2023-02-06T21:33:37.835Z,-23181.47
2023-02-06T21:35:40.615Z,-23185.00
2023-02-06T21:37:43.245Z,-23183.56
2023-02-06T21:39:45.966Z,-23179.72
2023-02-06T21:41:51.507Z,-23180.19
2023-02-06T21:43:54.322Z,-23182.59
2023-02-06T21:45:58.448Z,-23184.19
2023-02-06T21:48:01.519Z,-23182.28
2023-02-06T21:50:04.314Z,-23185.47
2023-02-06T21:52:07.002Z,-23186.44
2023-02-06T21:54:10.040Z,-23184.69
2023-02-06T21:56:15.725Z,-23187.22
2023-02-06T21:58:18.411Z,-23184.19
2023-02-06T22:00:21.589Z,-23183.88
2023-02-06T22:02:25.842Z,-23182.91
2023-02-06T22:04:29.269Z,-23184.03
2023-02-06T22:06:36.748Z,-23189.16
2023-02-06T22:08:41.384Z,-23184.84
2023-02-06T22:10:44.117Z,-23186.28
2023-02-06T22:12:49.318Z,-23189.16
2023-02-06T22:14:52.010Z,-23186.44
2023-02-06T22:16:54.875Z,-23184.84
2023-02-06T22:19:00.678Z,-23190.59
2023-02-06T22:21:05.242Z,-23188.66
2023-02-06T22:23:07.932Z,-23188.84
2023-02-06T22:25:11.691Z,-23189.47
2023-02-06T22:27:14.471Z,-23188.03
2023-02-06T22:29:18.532Z,-23184.69
2023-02-06T22:31:23.826Z,-23188.03
2023-02-06T22:33:26.605Z,-23189.47
2023-02-06T22:35:30.670Z,-23191.88
2023-02-06T22:37:34.381Z,-23183.41
2023-02-06T22:39:37.060Z,-23184.19
2023-02-06T22:41:40.985Z,-23181.97
2023-02-06T22:43:45.401Z,-23184.03
2023-02-06T22:45:50.547Z,-23184.84
2023-02-06T22:47:53.144Z,-23183.56
2023-02-06T22:49:55.839Z,-23180.69
2023-02-06T22:51:59.916Z,-23181.31
2023-02-06T22:54:01.924Z,-23174.94
2023-02-06T22:56:23.990Z,-23177.31
2023-02-06T22:58:26.662Z,-23172.06
2023-02-06T23:00:29.355Z,-23173.66
2023-02-06T23:02:32.100Z,-23169.81
2023-02-06T23:04:36.118Z,-23170.47
2023-02-06T23:06:39.122Z,-23170.78
2023-02-06T23:08:43.949Z,-23167.75
2023-02-06T23:10:47.628Z,-23166.94
2023-02-06T23:12:50.260Z,-23162.78
2023-02-06T23:14:52.980Z,-23162.16
2023-02-06T23:16:55.703Z,-23168.06
2023-02-06T23:18:58.393Z,-23160.41
2023-02-06T23:21:03.608Z,-23158.63
2023-02-06T23:23:06.422Z,-23158.63
2023-02-06T23:25:10.547Z,-23156.88
2023-02-06T23:27:13.211Z,-23155.75
2023-02-06T23:29:17.836Z,-23154.81
2023-02-06T23:31:20.617Z,-23154.81
2023-02-06T23:33:23.670Z,-23155.13
2023-02-06T23:35:26.467Z,-23150.97
2023-02-06T23:37:29.226Z,-23150.47
2023-02-06T23:39:31.893Z,-23150.47
2023-02-06T23:41:36.064Z,-23150.00
2023-02-06T23:43:39.376Z,-23150.66
2023-02-06T23:45:42.279Z,-23145.53
2023-02-06T23:47:44.911Z,-23147.44
2023-02-06T23:49:47.524Z,-23149.38
2023-02-06T23:51:50.223Z,-23146.50
2023-02-06T23:53:53.505Z,-23145.22
2023-02-06T23:55:56.265Z,-23139.63
2023-02-06T23:58:00.315Z,-23136.88
